KVGT/VGT METAR and TAF weather

Enter ICAO airport designator
Station Type Date Time Source
KVGT METAR 2019/10/14 05:53 UTC NOAA

KVGT 140553Z AUTO 32005KT 10SM CLR 16/M08 A2985 RMK AO2 SLP115 T01561078 10267 20156 51008


Station Type Date Time Source
KVGT Decoded METAR 2019/10/14 05:53 UTC NOAA

NORTH LAS VEGAS, NV, United States (KVGT) 36-12N 115-11W
Oct 14, 2019 - 01:53 AM EDT / 2019.10.14 0553 UTC
Wind: from the NW (320 degrees) at 6 MPH (5 KT):0
Visibility: 10 mile(s):0
Sky conditions: clear
Temperature: 60.1 F (15.6 C)
Dew Point: 18.0 F (-7.8 C)
Relative Humidity: 19%
Pressure (altimeter): 29.85 in. Hg (1010 hPa)
Pressure tendency: 0.02 inches (0.8 hPa) higher than three hours ago
ob: KVGT 140553Z AUTO 32005KT 10SM CLR 16/M08 A2985 RMK AO2 SLP115 T01561078 10267 20156 51008
cycle: 6

Station Type Date Time Source
KVGT TAF 2019/10/14 06:22 UTC NOAA

TAF KVGT 140520Z 1406/1506 32006KT P6SM FEW250
FM141900 13006KT P6SM FEW250
FM150200 32005KT P6SM SKC

Example: see airport list